• Join FlightAware (Why Join?)
  • Login
  • US Flag 
11:28AM EST


 

Airport Tracker/Info


-or-


 

Live Flight TrackerFlight Track Log ✈ UPS1214 ✈ 02-May-2013 ✈ KSDF - KBWI

Flight Track Log - Related Links

Times and Time Zones

All times are in EDT time to prevent confusion due to time zone crossing. See the UPS1214 flight status page for this flight to view local times or setup timezone preferences in your user account.

Time Position Orientation Groundspeed Altitude Reporting Facility
EDT Latitude Longitude Course Direction KTS MPH feet Rate Location/Type
04:29AM 38.1560 -85.7210 159° South 151 174 1,900  Level FlightAware
04:30AM 38.1360 -85.7140 165° South 187 215 2,600 2,040 Climbing FlightAware
04:30AM 38.1070 -85.7040 165° South 221 254 3,800 2,280 Climbing FlightAware
04:30AM 38.0810 -85.6960 166° South 249 287 4,700 2,220 Climbing FlightAware
04:31AM 38.0650 -85.6830 147° Southeast 260 299 5,300 2,760 Climbing FlightAware
04:31AM 38.0560 -85.6660 124° Southeast 258 297 6,100 3,120 Climbing FlightAware
04:31AM 38.0540 -85.6500 99° East 258 297 6,600 3,120 Climbing FlightAware
04:32AM 38.0610 -85.6060 79° East 264 304 8,200 3,180 Climbing FlightAware
04:32AM 38.0740 -85.5610 70° East 275 316 9,800 2,400 Climbing FlightAware
04:33AM 38.0930 -85.4960 70° East 319 367 11,000 1,800 Climbing FlightAware
04:34AM 38.1190 -85.4050 70° East 386 444 12,400 2,580 Climbing FlightAware
04:34AM 38.1450 -85.3180 69° East 407 468 14,700 3,420 Climbing FlightAware
04:35AM 38.1710 -85.2270 70° East 424 488 17,000 3,240 Climbing FlightAware
04:36AM 38.2020 -85.1190 70° East 445 512 19,300 3,000 Climbing FlightAware
04:36AM 38.2300 -85.0200 70° East 458 527 21,300 2,940 Climbing FlightAware
04:37AM 38.2640 -84.9010 70° East 471 542 23,500 2,820 Climbing FlightAware
04:38AM 38.2930 -84.7980 70° East 478 550 25,300 2,580 Climbing FlightAware
04:38AM 38.3230 -84.6910 70° East 487 560 27,000 1,620 Climbing FlightAware
04:39AM 38.3590 -84.5640 70° East 495 570 27,800 2,040 Climbing FlightAware
04:40AM 38.4100 -84.3800 70° East 498 573 31,000 1,920 Climbing FlightAware
04:41AM 38.4350 -84.2900 70° East 500 575 31,000  Level FlightAware
04:42AM 38.4680 -84.1740 70° East 500 575 31,000  Level FlightAware
04:42AM 38.4940 -84.0800 71° East 500 575 31,000  Level FlightAware
04:43AM 38.5210 -83.9850 70° East 500 575 31,000  Level FlightAware
04:44AM 38.5550 -83.8670 70° East 500 575 31,000  Level FlightAware
04:44AM 38.5820 -83.7730 70° East 500 575 31,000  Level FlightAware
04:45AM 38.6090 -83.6780 70° East 500 575 31,000  Level FlightAware
04:46AM 38.6360 -83.5830 70° East 500 575 31,000  Level FlightAware
04:47AM 38.6690 -83.4650 70° East 500 575 31,000  Level FlightAware
04:47AM 38.7310 -83.1960 73° East 498 573 31,000  Level FlightAware
04:48AM 38.7540 -83.1110 71° East 498 573 31,000  Level FlightAware
04:49AM 38.7930 -82.9590 72° East 498 573 31,000  Level FlightAware
04:49AM 38.8210 -82.8540 71° East 498 573 31,000  Level FlightAware
04:50AM 38.8470 -82.7590 71° East 498 573 31,000  Level FlightAware
04:51AM 38.8800 -82.6270 72° East 494 568 31,000  Level FlightAware
04:52AM 38.9130 -82.4970 72° East 493 567 31,000  Level FlightAware
04:52AM 38.9410 -82.3890 72° East 491 565 31,000  Level FlightAware
04:53AM 38.9730 -82.2660 71° East 489 563 31,000  Level FlightAware
04:54AM 39.0010 -82.1560 72° East 489 563 31,000  Level FlightAware
04:54AM 39.0280 -82.0460 72° East 488 562 31,000  Level FlightAware
04:55AM 39.0570 -81.9340 72° East 489 563 31,000  Level FlightAware
04:56AM 39.0880 -81.8100 72° East 489 563 31,000  Level FlightAware
04:56AM 39.1200 -81.6830 72° East 490 564 31,000  Level FlightAware
04:57AM 39.1470 -81.5740 72° East 491 565 31,000  Level FlightAware
04:58AM 39.1750 -81.4600 72° East 492 566 31,000  Level FlightAware
04:59AM 39.2050 -81.3390 72° East 492 566 31,000  Level FlightAware
04:59AM 39.2320 -81.2280 73° East 492 566 31,000  Level FlightAware
05:00AM 39.2560 -81.1300 72° East 492 566 31,000  Level FlightAware
05:01AM 39.2890 -80.9960 72° East 493 567 31,000  Level FlightAware
05:01AM 39.3160 -80.8760 74° East 491 565 31,000  Level FlightAware
05:02AM 39.3280 -80.7470 83° East 489 563 31,000  Level FlightAware
05:03AM 39.3320 -80.6400 87° East 489 563 31,000  Level FlightAware
05:03AM 39.3360 -80.5410 87° East 489 563 31,000  Level FlightAware
05:04AM 39.3400 -80.3910 88° East 486 559 31,000  Level FlightAware
05:05AM 39.3430 -80.2770 88° East 485 558 31,000  Level FlightAware
05:06AM 39.3470 -80.1450 88° East 485 558 31,000  Level FlightAware
05:06AM 39.3490 -80.0300 89° East 485 558 31,000  Level FlightAware
05:07AM 39.3520 -79.9140 88° East 482 555 31,000  Level FlightAware
05:08AM 39.3560 -79.7900 88° East 480 552 31,000  Level FlightAware
05:08AM 39.3580 -79.6720 89° East 478 550 31,000  Level FlightAware
05:09AM 39.3610 -79.5440 88° East 478 550 31,000  Level FlightAware
05:10AM 39.3640 -79.4280 88° East 477 549 31,000  Level FlightAware
05:10AM 39.3660 -79.3150 89° East 478 550 31,000  Level FlightAware
05:11AM 39.3680 -79.1860 89° East 477 549 31,000  Level FlightAware
05:12AM 39.3700 -79.0770 89° East 477 549 31,000 -360 Level FlightAware
05:13AM 39.3720 -78.9480 89° East 474 545 30,500 -1,800 Descending FlightAware
05:13AM 39.3740 -78.8330 89° East 469 540 28,500 -3,000 Descending FlightAware
05:14AM 39.3760 -78.7240 89° East 462 532 26,500 -2,940 Descending FlightAware
05:15AM 39.3780 -78.5990 89° East 450 518 24,400 -2,760 Descending FlightAware
05:15AM 39.3790 -78.5050 89° East 440 506 22,600 -2,700 Descending FlightAware
05:16AM 39.3810 -78.3760 89° East 429 494 20,600 -2,700 Descending FlightAware
05:17AM 39.3820 -78.2760 89° East 421 484 18,800 -2,640 Descending FlightAware
05:17AM 39.3830 -78.1640 89° East 411 473 16,900 -2,400 Descending FlightAware
05:18AM 39.3840 -78.0700 89° East 397 457 15,400 -2,340 Descending FlightAware
05:19AM 39.3930 -77.9640 84° East 389 448 13,600 -1,920 Descending FlightAware
05:20AM 39.4020 -77.8770 82° East 384 442 12,700 -1,320 Descending FlightAware
05:20AM 39.4120 -77.7710 83° East 379 436 11,800 -1,140 Descending FlightAware
05:21AM 39.4190 -77.6850 84° East 374 430 11,100 -900 Descending FlightAware
05:22AM 39.4270 -77.5940 83° East 369 425 10,600 -360 Descending FlightAware
05:22AM 39.4340 -77.5140 84° East 369 425 10,600  Level FlightAware
05:23AM 39.4400 -77.4440 84° East 369 425 10,600  Level FlightAware
05:24AM 39.4510 -77.3250 83° East 321 369 10,600  Level FlightAware
05:24AM 39.4600 -77.2600 80° East 287 330 10,600 -660 Level FlightAware
05:25AM 39.4660 -77.2150 80° East 280 322 9,900 -1,800 Descending FlightAware
05:25AM 39.4610 -77.1680 98° East 272 313 8,800 -2,400 Descending FlightAware
05:26AM 39.4460 -77.1200 112° Southeast 265 305 7,500 -2,520 Descending FlightAware
05:26AM 39.4350 -77.0830 111° Southeast 262 302 6,500 -2,280 Descending FlightAware
05:27AM 39.4250 -77.0450 109° East 256 295 5,600 -1,920 Descending FlightAware
05:27AM 39.4190 -77.0180 106° East 242 278 5,100 -1,020 Descending FlightAware
05:28AM 39.4060 -76.9660 108° East 199 229 4,600 -840 Descending FlightAware
05:28AM 39.4020 -76.9490 107° East 177 204 4,300 -1,380 Descending FlightAware
05:28AM 39.3950 -76.9220 109° East 167 192 3,600 -1,440 Descending FlightAware
05:29AM 39.3820 -76.8900 118° Southeast 167 192 2,800 -1,140 Descending FlightAware
05:30AM 39.3690 -76.8640 123° Southeast 165 190 2,300 -840 Descending FlightAware
05:30AM 39.3610 -76.8480 123° Southeast 161 185 2,100 -300 Descending FlightAware
05:30AM 39.3500 -76.8360 140° Southeast 166 191 2,100  Level FlightAware
05:31AM 39.3350 -76.8210 142° Southeast 167 192 2,100  Level FlightAware
05:31AM 39.3290 -76.8150 142° Southeast 167 192 2,100 -180 Level FlightAware
05:31AM 39.3060 -76.7930 143° Southeast 147 169 2,000 -240 Descending FlightAware
05:32AM 39.2970 -76.7850 145° Southeast 146 168 1,900 -300 Descending FlightAware
05:32AM 39.2830 -76.7730 146° Southeast 148 170 1,800 -240 Descending FlightAware
05:33AM 39.2660 -76.7570 144° Southeast 144 166 1,700 -360 Descending FlightAware
05:33AM 39.2570 -76.7480 142° Southeast 132 152 1,500 -720 Descending FlightAware
05:33AM 39.2470 -76.7390 145° Southeast 131 151 1,200 -300 Descending FlightAware
05:34AM 39.2333 -76.7167 145° Southeast 138 159 1,300 -480 Climbing Potomac TRACON
05:35AM 39.2000 -76.7000 159° South 135 155 600 -720 Descending Potomac TRACON
05:37AM 39.1754 -76.6683 142° Southeast  Level Estimated
05:44AM 39.1754 -76.6683 142° Southeast  Level Estimated
05:45AM 39.1754 -76.6683 142° Southeast  Level Estimated
05:46AM 39.1754 -76.6683 142° Southeast  Level Estimated
05:47AM 39.1754 -76.6683 142° Southeast  Level Estimated